Hovedside
METAR-TAF:

METAR-TAF

Lufthavner :

Wien internasjonale lufthavn

Wien, Østerrike

breddegrad: 48-07N, lengdegrad: 016-34E, høyde over havet: 183 m

Gjeldene værobservasjon

Denne rapporten ble laget for 48 minutter siden, klokken 10:50 UTC
Vind 2 kt fra skiftende retning
Temperatur 29°C
Luftfuktighet 55%
Trykk 1013 hPa
Sikt 10 km eller mer
ingen skyer under 1500 m og ingen bygeskyer

METAR: LOWW 191050Z VRB02KT CAVOK 29/19 Q1013 NOSIG

Tid: 13:38 (11:38 UTC)

Varsel

Denne rapporten ble laget for 3 timer og 23 minutter siden, klokken 08:15 UTC
Varsel gyldig fra 19. klokken 09 UTC til 20. klokken 15 UTC
Vind 7 kt fra Sør-sørøst
Sikt 10 km eller mer
ingen skyer under 1500 m og ingen bygeskyer
Midlertidig
fra 19. klokken 17 UTC til 19. klokken 21 UTC
Få skyer i en høyde av 4000 ft, Bygeskyer.
Blir
fra 19. klokken 19 UTC til 19. klokken 22 UTC
Vind 12 kt fra Nord-nordvest

TAF: LOWW 190815Z 1909/2015 15007KT CAVOK TX32/1915Z TN19/2004Z TEMPO 1917/1921 FEW040CB BECMG 1919/1922 34012KT

Værobservasjoner og værvarsel for over 4000 flyplasser (METAR- og TAF-rapporter).

Tilgjengelige stasjoner er representert av de røde og gule prikkene på kartet.

Hold musepekeren over prikken for å se navnet på stasjonen.

Klikk så for å se værobservasjoner og -varsler.

For å forandre kartet kan du klikke på den grønne knappen med svart kryss for å zoome inn, på den grønne knappen med strek for å zoome ut, eller på de grønne pilene for å se tilstøtende kart.


METAR-TAF: